createdAt,value
2023-04-18T00:01:29.809Z,100595.04
2023-04-18T00:03:58.066Z,100592.60
2023-04-18T00:06:26.692Z,100589.46
2023-04-18T00:08:54.720Z,100586.14
2023-04-18T00:11:22.993Z,100587.59
2023-04-18T00:13:51.009Z,100586.19
2023-04-18T00:16:19.099Z,100587.83
2023-04-18T00:18:48.196Z,100588.81
2023-04-18T00:21:16.848Z,100587.73
2023-04-18T00:23:46.199Z,100587.05
2023-04-18T00:26:14.304Z,100586.73
2023-04-18T00:28:42.846Z,100589.43
2023-04-18T00:31:11.963Z,100590.64
2023-04-18T00:33:39.961Z,100589.55
2023-04-18T00:36:08.207Z,100586.16
2023-04-18T00:38:36.469Z,100589.28
2023-04-18T00:41:04.528Z,100585.77
2023-04-18T00:43:35.070Z,100581.84
2023-04-18T00:46:03.457Z,100583.52
2023-04-18T00:48:31.608Z,100584.08
2023-04-18T00:51:00.429Z,100585.21
2023-04-18T00:53:28.807Z,100584.11
2023-04-18T00:55:56.979Z,100582.11
2023-04-18T00:58:25.719Z,100584.27
2023-04-18T01:00:54.735Z,100585.64
2023-04-18T01:03:24.183Z,100583.36
2023-04-18T01:05:53.881Z,100582.52
2023-04-18T01:08:22.016Z,100583.66
2023-04-18T01:10:50.014Z,100574.30
2023-04-18T01:13:19.685Z,100573.21
2023-04-18T01:15:49.275Z,100568.77
2023-04-18T01:18:17.914Z,100563.34
2023-04-18T01:20:49.829Z,100566.71
2023-04-18T01:23:18.303Z,100568.35
2023-04-18T01:25:47.014Z,100564.09
2023-04-18T01:28:15.877Z,100558.27
2023-04-18T01:30:44.033Z,100561.25
2023-04-18T01:33:12.315Z,100556.88
2023-04-18T01:35:40.852Z,100560.86
2023-04-18T01:38:08.908Z,100561.80
2023-04-18T01:40:36.902Z,100563.13
2023-04-18T01:43:05.281Z,100566.49
2023-04-18T01:45:33.332Z,100565.61
2023-04-18T01:48:03.401Z,100562.53
2023-04-18T01:50:31.541Z,100560.98
2023-04-18T01:52:59.600Z,100555.44
2023-04-18T01:55:27.705Z,100559.24
2023-04-18T01:57:56.137Z,100557.45
2023-04-18T02:00:24.653Z,100553.82
2023-04-18T02:02:52.890Z,100551.40
2023-04-18T02:05:22.029Z,100551.09
2023-04-18T02:07:50.387Z,100550.22
2023-04-18T02:10:19.548Z,100546.73
2023-04-18T02:12:47.841Z,100550.14
2023-04-18T02:15:15.875Z,100548.88
2023-04-18T02:17:43.979Z,100542.52
2023-04-18T02:20:13.403Z,100540.45
2023-04-18T02:22:41.877Z,100536.85
2023-04-18T02:25:11.406Z,100534.66
2023-04-18T02:27:40.398Z,100534.04
2023-04-18T02:30:09.386Z,100538.73
2023-04-18T02:32:37.862Z,100536.13
2023-04-18T02:35:06.549Z,100534.38
2023-04-18T02:37:34.716Z,100533.25
2023-04-18T02:40:05.134Z,100536.05
2023-04-18T02:42:33.499Z,100535.55
2023-04-18T02:45:02.684Z,100532.95
2023-04-18T02:47:37.596Z,100537.38
2023-04-18T02:50:11.811Z,100535.71
2023-04-18T02:52:40.073Z,100535.52
2023-04-18T02:55:09.549Z,100535.20
2023-04-18T02:57:40.214Z,100532.70
2023-04-18T03:00:43.542Z,100531.91
2023-04-18T03:03:30.916Z,100533.23
2023-04-18T03:06:14.601Z,100527.50
2023-04-18T03:08:44.482Z,100522.39
2023-04-18T03:11:12.666Z,100524.55
2023-04-18T03:13:41.073Z,100524.91
2023-04-18T03:16:09.691Z,100529.38
2023-04-18T03:18:38.257Z,100529.08
2023-04-18T03:21:07.302Z,100532.25
2023-04-18T03:23:35.759Z,100535.58
2023-04-18T03:26:08.105Z,100536.88
2023-04-18T03:28:38.188Z,100537.21
2023-04-18T03:31:08.019Z,100541.23
2023-04-18T03:33:39.938Z,100542.18
2023-04-18T03:36:15.129Z,100538.44
2023-04-18T03:38:46.934Z,100544.55
2023-04-18T03:41:17.343Z,100547.77
2023-04-18T03:43:47.297Z,100549.35
2023-04-18T03:46:17.476Z,100549.98
2023-04-18T03:48:47.794Z,100548.23
2023-04-18T03:51:19.653Z,100550.31
2023-04-18T03:53:50.011Z,100548.06
2023-04-18T03:56:22.007Z,100546.71
2023-04-18T03:58:55.495Z,100551.42
2023-04-18T04:01:25.665Z,100552.79
2023-04-18T04:03:55.706Z,100553.73
2023-04-18T04:06:27.081Z,100552.74
2023-04-18T04:08:57.768Z,100554.73
2023-04-18T04:11:29.083Z,100556.95
2023-04-18T04:14:00.656Z,100555.57
2023-04-18T04:16:36.077Z,100555.83
2023-04-18T04:19:06.851Z,100557.36
2023-04-18T04:21:43.080Z,100558.78
2023-04-18T04:24:16.661Z,100561.11
2023-04-18T04:26:50.846Z,100560.15
2023-04-18T04:36:33.548Z,100570.70
2023-04-18T04:39:04.351Z,100569.07
2023-04-18T04:41:47.480Z,100569.70
2023-04-18T04:44:17.798Z,100572.15
2023-04-18T04:46:48.128Z,100571.04
2023-04-18T04:49:19.778Z,100573.30
2023-04-18T04:51:47.953Z,100577.98
2023-04-18T04:54:16.700Z,100577.67
2023-04-18T04:56:45.144Z,100582.10
2023-04-18T04:59:14.382Z,100583.08
2023-04-18T05:01:47.143Z,100583.39
2023-04-18T05:04:17.372Z,100585.38
2023-04-18T05:06:46.321Z,100585.22
2023-04-18T05:09:15.314Z,100580.42
2023-04-18T05:11:44.095Z,100579.65
2023-04-18T05:14:13.274Z,100582.91
2023-04-18T05:16:48.837Z,100585.48
2023-04-18T05:19:22.040Z,100590.86
2023-04-18T05:21:50.145Z,100593.03
2023-04-18T05:24:19.121Z,100594.52
2023-04-18T05:26:47.270Z,100598.45
2023-04-18T05:29:15.492Z,100598.75
2023-04-18T05:31:44.033Z,100598.66
2023-04-18T05:34:12.429Z,100598.38
2023-04-18T05:36:41.324Z,100601.29
2023-04-18T05:39:09.680Z,100601.40
2023-04-18T05:41:37.954Z,100599.05
2023-04-18T05:44:06.545Z,100597.62
2023-04-18T05:46:35.029Z,100599.86
2023-04-18T05:49:04.019Z,100601.69
2023-04-18T05:51:32.274Z,100598.61
2023-04-18T05:54:06.193Z,100599.32
2023-04-18T05:56:36.360Z,100597.83
2023-04-18T05:59:14.195Z,100597.60
2023-04-18T06:01:43.808Z,100592.40
2023-04-18T06:04:12.159Z,100593.41
2023-04-18T06:06:41.200Z,100593.20
2023-04-18T06:09:09.507Z,100589.02
2023-04-18T06:11:37.664Z,100587.31
2023-04-18T06:14:05.965Z,100584.05
2023-04-18T06:16:36.678Z,100581.34
2023-04-18T06:19:05.460Z,100581.69
2023-04-18T06:21:33.534Z,100580.61
2023-04-18T06:24:01.684Z,100578.84
2023-04-18T06:26:32.106Z,100577.67
2023-04-18T06:29:00.313Z,100579.77
2023-04-18T06:31:28.422Z,100580.58
2023-04-18T06:33:56.907Z,100581.79
2023-04-18T06:36:26.948Z,100579.61
2023-04-18T06:38:55.012Z,100578.19
2023-04-18T06:41:23.011Z,100576.89
2023-04-18T06:44:02.764Z,100577.91
2023-04-18T06:46:32.947Z,100575.53
2023-04-18T06:49:01.009Z,100572.87
2023-04-18T06:51:32.063Z,100570.21
2023-04-18T06:54:02.182Z,100570.67
2023-04-18T06:56:33.474Z,100568.79
2023-04-18T06:59:03.110Z,100566.52
2023-04-18T07:01:33.218Z,100563.05
2023-04-18T07:04:01.435Z,100558.98
2023-04-18T07:09:26.684Z,100555.98
2023-04-18T07:11:55.148Z,100552.52
2023-04-18T07:14:24.107Z,100555.16
2023-04-18T07:16:52.364Z,100555.04
2023-04-18T07:19:20.526Z,100563.85
2023-04-18T07:21:48.679Z,100564.48
2023-04-18T07:24:16.908Z,100563.20
2023-04-18T07:26:45.349Z,100565.11
2023-04-18T07:29:14.456Z,100570.23
2023-04-18T07:31:42.975Z,100570.86
2023-04-18T07:34:11.599Z,100568.54
2023-04-18T07:36:40.802Z,100564.83
2023-04-18T07:39:09.095Z,100556.16
2023-04-18T07:41:37.290Z,100556.77
2023-04-18T07:44:05.836Z,100553.90
2023-04-18T07:46:34.108Z,100552.23
2023-04-18T07:49:02.484Z,100550.39
2023-04-18T07:51:35.072Z,100546.33
2023-04-18T07:54:03.930Z,100543.92
2023-04-18T07:56:58.128Z,100543.92
2023-04-18T07:59:27.388Z,100541.34
2023-04-18T08:01:55.503Z,100540.25
2023-04-18T08:04:24.153Z,100542.18
2023-04-18T08:06:52.678Z,100544.77
2023-04-18T08:09:21.915Z,100543.02
2023-04-18T08:11:50.037Z,100543.35
2023-04-18T08:14:18.104Z,100541.19
2023-04-18T08:16:46.397Z,100541.65
2023-04-18T08:19:15.333Z,100541.66
2023-04-18T08:21:43.876Z,100542.67
2023-04-18T08:24:12.294Z,100542.01
2023-04-18T08:26:40.471Z,100541.19
2023-04-18T08:29:08.916Z,100540.59
2023-04-18T08:31:40.219Z,100538.79
2023-04-18T08:34:08.455Z,100536.04
2023-04-18T08:36:36.850Z,100537.27
2023-04-18T08:39:05.242Z,100538.60
2023-04-18T08:41:36.197Z,100536.36
2023-04-18T08:44:04.210Z,100538.23
2023-04-18T08:46:36.181Z,100539.33
2023-04-18T08:49:05.106Z,100542.70
2023-04-18T08:51:34.108Z,100538.30
2023-04-18T08:54:04.790Z,100529.34
2023-04-18T08:56:33.333Z,100523.88
2023-04-18T08:59:01.308Z,100525.10
2023-04-18T09:02:06.542Z,100520.77
2023-04-18T09:04:35.919Z,100516.34
2023-04-18T09:07:07.580Z,100518.90
2023-04-18T09:09:52.713Z,100514.52
2023-04-18T09:12:23.233Z,100512.64
2023-04-18T09:14:58.411Z,100513.56
2023-04-18T09:17:37.879Z,100514.25
2023-04-18T09:20:07.125Z,100510.88
2023-04-18T09:22:52.381Z,100509.69
2023-04-18T09:25:46.551Z,100507.04
2023-04-18T09:28:23.375Z,100503.16
2023-04-18T09:30:52.550Z,100504.16
2023-04-18T09:33:29.332Z,100497.33
2023-04-18T09:36:18.781Z,100500.30
2023-04-18T09:38:47.706Z,100501.16
2023-04-18T09:41:19.839Z,100502.60
2023-04-18T09:43:49.041Z,100501.73
2023-04-18T09:46:22.735Z,100503.71
2023-04-18T09:48:50.944Z,100495.14
2023-04-18T09:51:18.950Z,100496.80
2023-04-18T09:53:50.400Z,100495.34
2023-04-18T09:56:28.661Z,100495.23
2023-04-18T09:59:08.801Z,100493.55
2023-04-18T10:01:37.136Z,100493.01
2023-04-18T10:04:06.935Z,100489.55
2023-04-18T10:06:38.581Z,100491.96
2023-04-18T10:09:07.762Z,100492.04
2023-04-18T10:11:36.519Z,100490.30
2023-04-18T10:14:07.112Z,100494.45
2023-04-18T10:16:36.435Z,100486.89
2023-04-18T10:19:44.329Z,100486.74
2023-04-18T10:22:13.375Z,100481.77
2023-04-18T10:24:49.998Z,100479.53
2023-04-18T10:27:19.670Z,100483.23
2023-04-18T10:29:54.546Z,100484.19
2023-04-18T10:32:23.540Z,100486.34
2023-04-18T10:34:53.925Z,100487.95
2023-04-18T10:37:22.193Z,100487.17
2023-04-18T10:39:57.370Z,100480.08
2023-04-18T10:42:47.491Z,100478.45
2023-04-18T10:45:22.452Z,100479.52
2023-04-18T10:47:50.928Z,100479.91
2023-04-18T10:50:19.153Z,100478.50
2023-04-18T10:52:47.134Z,100477.82
2023-04-18T10:55:23.102Z,100470.50
2023-04-18T10:57:51.605Z,100467.54
2023-04-18T11:00:21.855Z,100468.09
2023-04-18T11:02:57.832Z,100464.34
2023-04-18T11:05:27.517Z,100460.52
2023-04-18T11:07:55.703Z,100460.23
2023-04-18T11:10:26.624Z,100461.93
2023-04-18T11:12:54.942Z,100457.66
2023-04-18T11:15:24.304Z,100459.55
2023-04-18T11:18:03.074Z,100459.66
2023-04-18T11:20:47.545Z,100459.79
2023-04-18T11:23:17.454Z,100457.77
2023-04-18T11:25:45.482Z,100455.21
2023-04-18T11:28:13.752Z,100454.11
2023-04-18T11:30:42.015Z,100445.13
2023-04-18T11:33:11.880Z,100444.88
2023-04-18T11:35:44.701Z,100440.84
2023-04-18T11:38:14.639Z,100433.74
2023-04-18T11:40:49.860Z,100429.53
2023-04-18T11:43:25.213Z,100430.63
2023-04-18T11:45:57.920Z,100429.29
2023-04-18T11:48:40.276Z,100428.70
2023-04-18T11:51:09.826Z,100429.04
2023-04-18T11:53:38.999Z,100429.56
2023-04-18T11:56:07.690Z,100424.46
2023-04-18T11:58:36.562Z,100425.67
2023-04-18T12:01:17.999Z,100426.64
2023-04-18T12:04:08.176Z,100427.73
2023-04-18T12:06:51.150Z,100428.54
2023-04-18T12:09:21.429Z,100422.98
2023-04-18T12:11:59.682Z,100422.05
2023-04-18T12:14:30.349Z,100423.55
2023-04-18T12:16:58.368Z,100424.63
2023-04-18T12:19:28.180Z,100424.95
2023-04-18T12:22:09.920Z,100418.70
2023-04-18T12:24:38.277Z,100417.52
2023-04-18T12:27:06.620Z,100416.23
2023-04-18T12:29:35.371Z,100418.27
2023-04-18T12:32:03.609Z,100414.75
2023-04-18T12:34:31.922Z,100408.73
2023-04-18T12:37:00.396Z,100401.87
2023-04-18T12:39:28.774Z,100399.26
2023-04-18T12:41:57.096Z,100396.42
2023-04-18T12:44:25.753Z,100397.48
2023-04-18T12:46:54.108Z,100393.36
2023-04-18T12:49:22.825Z,100398.65
2023-04-18T12:51:51.067Z,100396.21
2023-04-18T12:54:19.960Z,100394.84
2023-04-18T12:56:47.987Z,100397.67
2023-04-18T12:59:16.509Z,100394.98
2023-04-18T13:01:44.835Z,100392.83
2023-04-18T13:04:13.532Z,100391.48
2023-04-18T13:06:41.961Z,100388.80
2023-04-18T13:09:10.558Z,100385.45
2023-04-18T13:11:38.730Z,100384.14
2023-04-18T13:14:07.162Z,100381.59
2023-04-18T13:16:35.455Z,100380.40
2023-04-18T13:19:03.838Z,100381.30
2023-04-18T13:21:32.177Z,100379.33
2023-04-18T13:24:01.029Z,100376.98
2023-04-18T13:26:30.106Z,100375.41
2023-04-18T13:28:58.171Z,100373.88
2023-04-18T13:31:26.152Z,100367.56
2023-04-18T13:33:57.963Z,100362.98
2023-04-18T13:36:28.625Z,100354.04
2023-04-18T13:38:57.264Z,100349.52
2023-04-18T13:41:25.296Z,100350.94
2023-04-18T13:43:53.872Z,100347.59
2023-04-18T13:46:23.461Z,100346.39
2023-04-18T13:48:51.973Z,100347.56
2023-04-18T13:51:20.453Z,100342.09
2023-04-18T13:53:49.178Z,100340.52
2023-04-18T13:56:24.156Z,100341.13
2023-04-18T13:58:52.828Z,100338.13
2023-04-18T14:01:21.143Z,100338.70
2023-04-18T14:03:52.680Z,100335.44
2023-04-18T14:06:21.048Z,100329.91
2023-04-18T14:08:51.281Z,100327.33
2023-04-18T14:11:20.312Z,100329.36
2023-04-18T14:13:48.945Z,100332.36
2023-04-18T14:16:19.352Z,100335.54
2023-04-18T14:18:47.803Z,100330.88
2023-04-18T14:21:16.416Z,100334.68
2023-04-18T14:23:44.724Z,100336.04
2023-04-18T14:26:13.228Z,100340.70
2023-04-18T14:28:42.321Z,100339.27
2023-04-18T14:31:11.415Z,100338.85
2023-04-18T14:33:40.222Z,100339.31
2023-04-18T14:36:09.424Z,100336.25
2023-04-18T14:38:37.576Z,100331.79
2023-04-18T14:41:05.866Z,100326.75
2023-04-18T14:43:33.818Z,100324.71
2023-04-18T14:46:02.228Z,100322.61
2023-04-18T14:48:30.479Z,100323.52
2023-04-18T14:50:59.357Z,100321.74
2023-04-18T14:53:27.885Z,100319.67
2023-04-18T14:55:56.788Z,100317.86
2023-04-18T14:58:24.919Z,100317.50
2023-04-18T15:00:52.994Z,100313.42
2023-04-18T15:03:21.923Z,100312.17
2023-04-18T15:05:50.262Z,100312.52
2023-04-18T15:08:18.334Z,100311.36
2023-04-18T15:10:47.651Z,100307.50
2023-04-18T15:13:16.203Z,100308.71
2023-04-18T15:15:51.729Z,100308.26
2023-04-18T15:18:20.256Z,100310.95
2023-04-18T15:20:48.657Z,100308.60
2023-04-18T15:23:17.077Z,100304.64
2023-04-18T15:25:45.897Z,100304.98
2023-04-18T15:28:14.378Z,100307.91
2023-04-18T15:30:42.663Z,100307.22
2023-04-18T15:33:11.992Z,100305.30
2023-04-18T15:35:40.029Z,100307.33
2023-04-18T15:38:08.511Z,100308.38
2023-04-18T15:40:38.141Z,100304.34
2023-04-18T15:43:06.533Z,100301.38
2023-04-18T15:45:36.243Z,100298.23
2023-04-18T15:48:05.536Z,100299.61
2023-04-18T15:50:34.190Z,100302.42
2023-04-18T15:53:02.529Z,100301.48
2023-04-18T15:55:30.940Z,100300.15
2023-04-18T15:57:59.177Z,100300.09
2023-04-18T16:00:27.902Z,100303.38
2023-04-18T16:02:56.620Z,100308.98
2023-04-18T16:05:25.180Z,100317.46
2023-04-18T16:07:56.414Z,100317.50
2023-04-18T16:10:25.031Z,100317.71
2023-04-18T16:12:53.742Z,100317.35
2023-04-18T16:15:21.866Z,100315.54
2023-04-18T16:17:50.123Z,100313.07
2023-04-18T16:20:19.354Z,100315.09
2023-04-18T16:22:48.032Z,100309.48
2023-04-18T16:25:16.089Z,100308.41
2023-04-18T16:27:44.485Z,100307.93
2023-04-18T16:30:13.183Z,100307.48
2023-04-18T16:32:41.632Z,100305.94
2023-04-18T16:35:10.983Z,100306.33
2023-04-18T16:37:39.716Z,100309.02
2023-04-18T16:40:10.228Z,100309.27
2023-04-18T16:42:38.578Z,100308.55
2023-04-18T16:45:07.741Z,100308.39
2023-04-18T16:47:36.711Z,100306.89
2023-04-18T16:50:08.444Z,100306.73
2023-04-18T16:52:36.872Z,100305.44
2023-04-18T16:55:05.865Z,100305.61
2023-04-18T16:57:34.146Z,100303.16
2023-04-18T17:00:04.476Z,100302.41
2023-04-18T17:02:33.689Z,100305.83
2023-04-18T17:05:02.361Z,100306.54
2023-04-18T17:07:31.203Z,100306.04
2023-04-18T17:09:59.205Z,100307.27
2023-04-18T17:12:27.307Z,100306.26
2023-04-18T17:14:55.777Z,100310.27
2023-04-18T17:17:26.746Z,100316.96
2023-04-18T17:19:57.650Z,100311.96
2023-04-18T17:22:26.550Z,100309.50
2023-04-18T17:24:54.949Z,100301.98
2023-04-18T17:27:23.483Z,100301.45
2023-04-18T17:29:51.785Z,100297.39
2023-04-18T17:32:20.148Z,100299.73
2023-04-18T17:34:49.263Z,100297.56
2023-04-18T17:37:17.468Z,100294.30
2023-04-18T17:39:45.963Z,100293.84
2023-04-18T17:42:14.275Z,100296.02
2023-04-18T17:44:42.914Z,100296.89
2023-04-18T17:47:11.341Z,100293.08
2023-04-18T17:49:40.223Z,100288.77
2023-04-18T17:52:08.522Z,100285.67
2023-04-18T17:54:37.604Z,100284.23
2023-04-18T17:57:06.388Z,100281.28
2023-04-18T17:59:37.746Z,100282.69
2023-04-18T18:02:06.246Z,100280.96
2023-04-18T18:04:35.183Z,100277.96
2023-04-18T18:07:04.542Z,100278.94
2023-04-18T18:09:34.408Z,100279.77
2023-04-18T18:12:03.785Z,100276.73
2023-04-18T18:14:32.360Z,100277.38
2023-04-18T18:17:00.864Z,100276.94
2023-04-18T18:19:29.485Z,100276.64
2023-04-18T18:21:57.510Z,100274.89
2023-04-18T18:24:26.999Z,100272.11
2023-04-18T18:26:55.192Z,100266.30
2023-04-18T18:29:23.484Z,100263.19
2023-04-18T18:31:51.541Z,100261.27
2023-04-18T18:34:21.395Z,100263.30
2023-04-18T18:36:50.899Z,100263.67
2023-04-18T18:39:19.071Z,100258.41
2023-04-18T18:41:47.225Z,100260.27
2023-04-18T18:44:15.942Z,100259.35
2023-04-18T18:46:44.194Z,100259.48
2023-04-18T18:49:13.371Z,100258.23
2023-04-18T18:51:41.832Z,100254.09
2023-04-18T18:54:10.100Z,100250.91
2023-04-18T18:56:40.181Z,100250.33
2023-04-18T18:59:09.112Z,100248.90
2023-04-18T19:01:38.954Z,100247.46
2023-04-18T19:04:07.854Z,100247.48
2023-04-18T19:06:36.444Z,100242.05
2023-04-18T19:09:05.539Z,100246.39
2023-04-18T19:11:34.322Z,100237.67
2023-04-18T19:14:03.042Z,100239.94
2023-04-18T19:16:31.359Z,100236.67
2023-04-18T19:18:59.793Z,100231.96
2023-04-18T19:21:28.057Z,100230.09
2023-04-18T19:23:56.171Z,100227.15
2023-04-18T19:26:24.465Z,100226.75
2023-04-18T19:28:53.086Z,100226.41
2023-04-18T19:31:21.638Z,100226.75
2023-04-18T19:33:50.153Z,100225.73
2023-04-18T19:36:19.167Z,100227.11
2023-04-18T19:38:47.443Z,100225.77
2023-04-18T19:41:15.650Z,100222.42
2023-04-18T19:43:44.229Z,100219.07
2023-04-18T19:46:12.511Z,100217.08
2023-04-18T19:48:40.847Z,100216.52
2023-04-18T19:51:09.277Z,100214.65
2023-04-18T19:53:39.040Z,100212.48
2023-04-18T19:56:10.878Z,100207.83
2023-04-18T19:58:45.292Z,100204.80
2023-04-18T20:01:14.395Z,100202.90
2023-04-18T20:03:42.879Z,100202.67
2023-04-18T20:06:12.829Z,100198.14
2023-04-18T20:08:45.926Z,100197.28
2023-04-18T20:11:15.634Z,100195.92
2023-04-18T20:13:44.409Z,100193.63
2023-04-18T20:16:12.541Z,100189.11
2023-04-18T20:18:44.222Z,100191.74
2023-04-18T20:21:12.732Z,100193.08
2023-04-18T20:23:45.605Z,100192.92
2023-04-18T20:26:14.170Z,100191.15
2023-04-18T20:28:42.375Z,100193.05
2023-04-18T20:31:11.891Z,100187.60
2023-04-18T20:33:40.546Z,100186.66
2023-04-18T20:36:09.014Z,100182.65
2023-04-18T20:38:38.114Z,100180.94
2023-04-18T20:41:06.398Z,100180.09
2023-04-18T20:43:37.521Z,100176.98
2023-04-18T20:46:07.066Z,100177.59
2023-04-18T20:48:35.269Z,100170.58
2023-04-18T20:51:03.578Z,100170.00
2023-04-18T20:53:31.880Z,100171.70
2023-04-18T20:56:02.421Z,100166.59
2023-04-18T20:58:31.196Z,100163.30
2023-04-18T21:00:59.191Z,100163.83
2023-04-18T21:03:27.327Z,100166.76
2023-04-18T21:05:56.238Z,100164.95
2023-04-18T21:08:24.380Z,100167.85
2023-04-18T21:10:53.059Z,100163.85
2023-04-18T21:13:21.162Z,100162.78
2023-04-18T21:15:52.170Z,100162.70
2023-04-18T21:18:21.053Z,100162.73
2023-04-18T21:20:49.910Z,100163.90
2023-04-18T21:23:17.995Z,100160.94
2023-04-18T21:25:46.022Z,100163.04
2023-04-18T21:28:14.225Z,100161.23
2023-04-18T21:30:42.477Z,100164.34
2023-04-18T21:33:10.752Z,100165.16
2023-04-18T21:35:39.031Z,100169.20
2023-04-18T21:38:07.515Z,100168.11
2023-04-18T21:40:35.687Z,100164.16
2023-04-18T21:43:03.722Z,100159.88
2023-04-18T21:45:32.105Z,100160.37
2023-04-18T21:48:00.449Z,100162.86
2023-04-18T21:50:29.009Z,100162.27
2023-04-18T21:52:57.267Z,100161.20
2023-04-18T21:55:25.534Z,100164.41
2023-04-18T21:57:54.412Z,100163.55
2023-04-18T22:00:22.654Z,100162.42
2023-04-18T22:02:51.535Z,100164.60
2023-04-18T22:05:20.509Z,100164.92
2023-04-18T22:07:57.514Z,100165.60
2023-04-18T22:10:26.769Z,100159.42
2023-04-18T22:12:56.227Z,100155.86
2023-04-18T22:15:24.668Z,100154.29
2023-04-18T22:17:54.352Z,100151.06
2023-04-18T22:20:23.467Z,100153.71
2023-04-18T22:22:52.620Z,100148.59
2023-04-18T22:25:20.556Z,100146.23
2023-04-18T22:27:48.937Z,100147.48
2023-04-18T22:30:17.289Z,100145.67
2023-04-18T22:32:45.802Z,100141.86
2023-04-18T22:35:14.049Z,100147.38
2023-04-18T22:37:42.096Z,100144.33
2023-04-18T22:40:10.781Z,100145.19
2023-04-18T22:42:39.298Z,100142.61
2023-04-18T22:45:08.344Z,100143.55
2023-04-18T22:47:36.471Z,100139.76
2023-04-18T22:50:05.263Z,100139.73
2023-04-18T22:52:34.274Z,100137.70
2023-04-18T22:55:03.012Z,100133.31
2023-04-18T22:57:31.372Z,100130.14
2023-04-18T22:59:59.526Z,100125.80
2023-04-18T23:02:28.161Z,100123.84
2023-04-18T23:04:59.055Z,100123.28
2023-04-18T23:07:27.279Z,100120.96
2023-04-18T23:09:55.693Z,100120.38
2023-04-18T23:12:23.980Z,100120.05
2023-04-18T23:14:52.239Z,100115.11
2023-04-18T23:17:21.056Z,100115.17
2023-04-18T23:19:49.418Z,100112.79
2023-04-18T23:22:17.760Z,100109.10
2023-04-18T23:24:46.044Z,100103.65
2023-04-18T23:27:14.270Z,100103.45
2023-04-18T23:29:42.799Z,100101.44
2023-04-18T23:32:11.481Z,100103.34
2023-04-18T23:34:39.497Z,100099.84
2023-04-18T23:37:08.196Z,100095.98
2023-04-18T23:39:36.502Z,100098.61
2023-04-18T23:42:04.974Z,100094.56
2023-04-18T23:44:33.284Z,100096.55
2023-04-18T23:47:01.636Z,100094.79
2023-04-18T23:49:30.395Z,100094.88
2023-04-18T23:51:58.527Z,100089.79
2023-04-18T23:54:26.721Z,100088.16
2023-04-18T23:56:54.729Z,100088.45
2023-04-18T23:59:23.283Z,100086.58
